Time;durP1;ratioP1;P1;durP2;ratioP2;P2;SDS_P1;SDS_P2;PMS_P1;PMS_P2;Temp;Humidity;BMP_temperature;BMP_pressure;BME280_temperature;BME280_humidity;BME280_pressure;Samples;Min_cycle;Max_cycle;Signal;HPM_P1;HPM_P2
2023/12/22 00:01:46;;;;;;;7.82;2.10;;;18.90;50.50;;;;;;5092962;28;20300;-57
2023/12/22 00:04:13;;;;;;;6.28;1.95;;;18.90;50.50;;;;;;5092718;28;20277;-58
2023/12/22 00:06:41;;;;;;;8.80;2.03;;;18.90;50.60;;;;;;5092967;28;20277;-59
2023/12/22 00:09:09;;;;;;;7.80;2.05;;;18.90;50.60;;;;;;5093011;28;20218;-58
2023/12/22 00:11:36;;;;;;;9.00;2.30;;;18.90;50.60;;;;;;5092321;28;20277;-60
2023/12/22 00:14:03;;;;;;;7.45;2.17;;;18.80;50.60;;;;;;5093129;28;20218;-58
2023/12/22 00:16:30;;;;;;;8.55;2.33;;;18.90;50.70;;;;;;5093043;28;20316;-58
2023/12/22 00:18:57;;;;;;;7.47;2.60;;;18.90;50.70;;;;;;5092741;28;20220;-56
2023/12/22 00:21:24;;;;;;;6.35;2.13;;;18.90;51.40;;;;;;5092762;28;20240;-59
2023/12/22 00:23:51;;;;;;;9.38;2.28;;;18.80;51.30;;;;;;5092558;28;20221;-57
2023/12/22 00:26:19;;;;;;;8.07;1.98;;;18.90;50.80;;;;;;5092373;28;20265;-59
2023/12/22 00:28:46;;;;;;;9.07;2.47;;;18.90;50.80;;;;;;5092575;28;20304;-58
2023/12/22 00:31:13;;;;;;;8.88;2.45;;;18.80;50.70;;;;;;5092475;28;20198;-58
2023/12/22 00:33:40;;;;;;;10.45;2.35;;;18.80;50.80;;;;;;5092449;28;20224;-56
2023/12/22 00:36:08;;;;;;;11.70;2.40;;;18.80;50.80;;;;;;5092508;28;20309;-58
2023/12/22 00:38:35;;;;;;;12.25;2.25;;;18.80;50.90;;;;;;5091634;28;20218;-58
2023/12/22 00:41:02;;;;;;;9.15;2.72;;;18.80;50.90;;;;;;5091802;28;20582;-59
2023/12/22 00:43:30;;;;;;;9.32;2.65;;;18.80;50.90;;;;;;5092687;28;20225;-58
2023/12/22 00:45:58;;;;;;;10.57;2.33;;;18.80;50.90;;;;;;5092426;28;20186;-59
2023/12/22 00:48:25;;;;;;;7.35;2.40;;;18.80;50.90;;;;;;5091899;28;20706;-59
2023/12/22 00:50:52;;;;;;;8.20;2.42;;;18.80;50.90;;;;;;5092470;28;20277;-58
2023/12/22 00:53:19;;;;;;;8.63;2.88;;;18.80;50.90;;;;;;5092213;28;20615;-59
2023/12/22 00:55:46;;;;;;;13.63;2.60;;;18.80;50.90;;;;;;5091966;28;20225;-58
2023/12/22 00:58:13;;;;;;;9.65;2.08;;;18.80;50.90;;;;;;5092146;28;20222;-58
2023/12/22 01:00:41;;;;;;;9.60;1.85;;;18.80;51.00;;;;;;5092262;28;20295;-57
2023/12/22 01:03:10;;;;;;;10.80;2.35;;;18.80;51.00;;;;;;5092053;28;20304;-57
2023/12/22 01:05:37;;;;;;;9.07;2.80;;;18.70;50.90;;;;;;5092026;28;20281;-59
2023/12/22 01:08:05;;;;;;;13.15;2.53;;;18.80;51.00;;;;;;5092412;28;20305;-59
2023/12/22 01:10:32;;;;;;;9.27;2.40;;;18.80;51.10;;;;;;5091942;28;20280;-59
2023/12/22 01:12:59;;;;;;;11.18;2.67;;;18.80;51.10;;;;;;5091936;28;20317;-59
2023/12/22 01:15:26;;;;;;;10.57;2.72;;;18.80;51.10;;;;;;5092431;28;20202;-59
2023/12/22 01:17:54;;;;;;;9.95;2.28;;;18.70;51.00;;;;;;5091861;28;20240;-58
2023/12/22 01:20:21;;;;;;;9.43;2.28;;;18.80;51.10;;;;;;5092089;28;20301;-59
2023/12/22 01:22:48;;;;;;;10.07;2.75;;;18.80;51.10;;;;;;5092093;28;20210;-59
2023/12/22 01:25:15;;;;;;;15.02;3.08;;;18.70;51.10;;;;;;5091853;28;20187;-59
2023/12/22 01:27:42;;;;;;;9.73;2.72;;;18.70;51.20;;;;;;5092037;28;20301;-58
2023/12/22 01:30:09;;;;;;;10.82;2.50;;;18.70;51.10;;;;;;5092098;28;20565;-58
2023/12/22 01:32:36;;;;;;;11.02;2.35;;;18.70;51.20;;;;;;5091787;28;20297;-58
2023/12/22 01:35:09;;;;;;;7.78;2.17;;;18.70;51.80;;;;;;5092062;28;20289;-58
2023/12/22 01:37:36;;;;;;;12.10;2.33;;;18.70;51.20;;;;;;5092090;28;20252;-59
2023/12/22 01:40:04;;;;;;;8.90;2.35;;;18.70;51.20;;;;;;5091709;28;20187;-59
2023/12/22 01:42:31;;;;;;;8.90;2.22;;;18.70;51.20;;;;;;5091906;28;20297;-58
2023/12/22 01:44:58;;;;;;;12.07;2.78;;;18.70;51.20;;;;;;5091674;28;20186;-59
2023/12/22 01:47:25;;;;;;;7.13;2.00;;;18.70;51.90;;;;;;5091568;28;20324;-53
2023/12/22 01:49:52;;;;;;;8.93;2.30;;;18.70;51.30;;;;;;5093109;28;20267;-58
2023/12/22 01:52:21;;;;;;;8.65;2.28;;;18.70;51.20;;;;;;5095573;28;20306;-58
2023/12/22 01:54:48;;;;;;;6.32;1.88;;;18.70;51.20;;;;;;5095252;28;20265;-59
2023/12/22 01:57:18;;;;;;;8.45;2.35;;;18.70;51.20;;;;;;5095194;28;20722;-57
2023/12/22 01:59:45;;;;;;;8.48;1.70;;;18.70;51.30;;;;;;5095348;28;20190;-57
2023/12/22 02:02:12;;;;;;;9.02;2.10;;;18.70;51.30;;;;;;5094683;28;20740;-57
2023/12/22 02:04:41;;;;;;;5.47;2.10;;;18.70;51.40;;;;;;5095412;28;20208;-58
2023/12/22 02:07:10;;;;;;;9.70;2.33;;;18.70;51.40;;;;;;5095020;28;20273;-59
2023/12/22 02:09:39;;;;;;;6.72;2.00;;;18.70;51.40;;;;;;5094966;28;20182;-59
2023/12/22 02:12:06;;;;;;;8.57;2.30;;;18.60;51.30;;;;;;5094951;28;20233;-57
2023/12/22 02:14:33;;;;;;;8.13;2.60;;;18.70;51.40;;;;;;5095181;28;20667;-58
2023/12/22 02:17:08;;;;;;;8.75;2.10;;;18.60;51.30;;;;;;5094313;28;20730;-59
2023/12/22 02:19:43;;;;;;;6.45;1.92;;;18.70;51.40;;;;;;5094961;28;20562;-59
2023/12/22 02:22:11;;;;;;;6.97;2.13;;;18.60;51.30;;;;;;5094955;28;20217;-58
2023/12/22 02:24:40;;;;;;;6.25;1.73;;;18.70;51.40;;;;;;5094382;28;20715;-57
2023/12/22 02:27:14;;;;;;;6.13;2.00;;;18.60;51.40;;;;;;5094809;28;20562;-59
2023/12/22 02:29:44;;;;;;;8.10;2.17;;;18.60;51.40;;;;;;5094987;28;20197;-58
2023/12/22 02:32:17;;;;;;;6.70;1.90;;;18.60;52.10;;;;;;5094175;28;20640;-58
2023/12/22 02:34:48;;;;;;;9.20;2.00;;;18.60;51.50;;;;;;5094841;28;20277;-58
2023/12/22 02:37:15;;;;;;;7.80;2.22;;;18.60;51.60;;;;;;5094686;28;20272;-57
2023/12/22 02:39:44;;;;;;;5.63;1.60;;;18.60;51.60;;;;;;5094475;28;20277;-59
2023/12/22 02:42:12;;;;;;;9.93;1.83;;;18.60;52.20;;;;;;5094469;28;20284;-56
2023/12/22 02:44:39;;;;;;;7.70;1.90;;;18.60;52.20;;;;;;5094659;28;20264;-58
2023/12/22 02:47:06;;;;;;;6.15;1.48;;;18.60;51.60;;;;;;5094287;28;20293;-56
2023/12/22 02:49:33;;;;;;;5.65;1.63;;;18.60;51.70;;;;;;5094507;28;20610;-56
2023/12/22 02:52:00;;;;;;;6.15;1.85;;;18.50;51.60;;;;;;5094188;28;20193;-59
2023/12/22 02:54:29;;;;;;;8.45;2.40;;;18.60;52.40;;;;;;5094300;28;20249;-58
2023/12/22 02:56:58;;;;;;;8.45;1.95;;;18.60;51.80;;;;;;5094501;28;20190;-58
2023/12/22 02:59:27;;;;;;;8.00;2.22;;;18.60;51.70;;;;;;5094515;28;20741;-59
2023/12/22 03:01:54;;;;;;;6.97;1.63;;;18.50;51.70;;;;;;5092781;28;20665;-57
2023/12/22 03:04:21;;;;;;;7.93;1.88;;;18.60;51.80;;;;;;5094194;28;20301;-57
2023/12/22 03:06:48;;;;;;;5.90;1.80;;;18.60;51.90;;;;;;5094104;28;20265;-57
2023/12/22 03:09:14;;;;;;;9.60;1.90;;;18.50;51.80;;;;;;5093974;28;20224;-57
2023/12/22 03:11:41;;;;;;;6.95;1.92;;;18.60;51.90;;;;;;5093844;28;20313;-58
2023/12/22 03:14:10;;;;;;;5.72;2.17;;;18.50;51.80;;;;;;5094135;28;20300;-58
2023/12/22 03:16:37;;;;;;;9.65;2.10;;;18.50;51.80;;;;;;5093375;28;20274;-58
2023/12/22 03:19:04;;;;;;;7.70;1.98;;;18.50;51.90;;;;;;5094152;28;20300;-58
2023/12/22 03:21:30;;;;;;;7.22;2.10;;;18.50;52.50;;;;;;5093824;28;20220;-59
2023/12/22 03:23:57;;;;;;;9.48;2.10;;;18.50;52.00;;;;;;5093636;28;20214;-57
2023/12/22 03:26:24;;;;;;;5.85;1.90;;;18.50;52.00;;;;;;5093822;28;20281;-57
2023/12/22 03:28:51;;;;;;;5.47;1.42;;;18.50;52.00;;;;;;5093641;28;20778;-58
2023/12/22 03:31:19;;;;;;;7.05;1.60;;;18.50;52.60;;;;;;5093425;28;20265;-58
2023/12/22 03:33:46;;;;;;;6.07;1.58;;;18.50;52.00;;;;;;5093819;28;20301;-59
2023/12/22 03:36:13;;;;;;;7.72;1.90;;;18.50;52.00;;;;;;5093615;28;20265;-58
2023/12/22 03:38:40;;;;;;;9.65;2.30;;;18.50;52.00;;;;;;5093288;28;20298;-58
2023/12/22 03:41:07;;;;;;;8.20;1.45;;;18.50;52.00;;;;;;5093423;28;20249;-58
2023/12/22 03:43:34;;;;;;;7.63;1.55;;;18.50;52.00;;;;;;5093574;28;20296;-58
2023/12/22 03:46:01;;;;;;;6.80;1.67;;;18.50;52.10;;;;;;5093119;28;20285;-57
2023/12/22 03:48:29;;;;;;;7.30;1.90;;;18.50;52.10;;;;;;5093494;28;20305;-56
2023/12/22 03:50:56;;;;;;;8.43;1.83;;;18.50;52.70;;;;;;5093041;28;20198;-57
2023/12/22 03:53:23;;;;;;;6.25;1.80;;;18.50;52.10;;;;;;5093003;28;20217;-59
2023/12/22 03:55:50;;;;;;;8.00;1.70;;;18.50;52.20;;;;;;5093237;28;20618;-59
2023/12/22 03:58:17;;;;;;;8.98;2.22;;;18.50;52.10;;;;;;5093343;28;20224;-57
2023/12/22 04:00:44;;;;;;;5.95;1.40;;;18.50;52.20;;;;;;5092415;28;20248;-58
2023/12/22 04:03:11;;;;;;;9.40;1.98;;;18.50;52.10;;;;;;5092769;28;20620;-58
2023/12/22 04:05:39;;;;;;;7.47;1.95;;;18.50;52.20;;;;;;5093049;28;20197;-58
2023/12/22 04:08:07;;;;;;;7.30;1.80;;;18.50;52.20;;;;;;5091156;28;20304;-58
2023/12/22 04:10:34;;;;;;;4.50;1.75;;;18.40;52.20;;;;;;5084423;28;20285;-59
2023/12/22 04:13:01;;;;;;;12.68;2.13;;;18.50;52.90;;;;;;5072770;28;20321;-59
2023/12/22 04:15:27;;;;;;;6.45;1.63;;;18.50;52.20;;;;;;5071906;28;20657;-57
2023/12/22 04:17:54;;;;;;;7.88;1.77;;;18.40;52.20;;;;;;5072687;28;20301;-58
2023/12/22 04:20:22;;;;;;;7.20;1.88;;;18.50;52.30;;;;;;5072591;28;20269;-58
2023/12/22 04:22:50;;;;;;;9.25;2.40;;;18.40;52.20;;;;;;5071827;28;20280;-59
2023/12/22 04:25:17;;;;;;;7.65;1.88;;;18.40;52.20;;;;;;5072424;28;20187;-57
2023/12/22 04:27:45;;;;;;;8.80;1.70;;;18.40;52.30;;;;;;5072479;28;20302;-58
2023/12/22 04:30:12;;;;;;;6.70;1.88;;;18.40;52.30;;;;;;5072065;28;20183;-56
2023/12/22 04:32:39;;;;;;;8.90;2.05;;;18.40;52.30;;;;;;5072448;28;20368;-56
2023/12/22 04:35:07;;;;;;;8.90;2.15;;;18.40;52.30;;;;;;5072433;28;20217;-57
2023/12/22 04:37:34;;;;;;;6.93;1.52;;;18.40;52.30;;;;;;5072325;28;20273;-57
2023/12/22 04:40:03;;;;;;;6.97;1.75;;;18.40;52.30;;;;;;5072317;28;20277;-58
2023/12/22 04:42:30;;;;;;;7.57;1.65;;;18.40;52.40;;;;;;5072266;28;20298;-57
2023/12/22 04:44:57;;;;;;;8.07;1.90;;;18.40;52.30;;;;;;5071661;28;20190;-55
2023/12/22 04:47:24;;;;;;;9.90;2.03;;;18.40;52.30;;;;;;5072175;28;20191;-59
2023/12/22 04:49:50;;;;;;;7.65;2.60;;;18.40;52.30;;;;;;5072252;28;20269;-56
2023/12/22 04:52:18;;;;;;;9.70;2.08;;;18.40;52.40;;;;;;5071845;28;20187;-57
2023/12/22 04:54:44;;;;;;;9.43;2.35;;;18.40;53.00;;;;;;5072241;28;20269;-59
2023/12/22 04:57:13;;;;;;;6.78;1.90;;;18.40;52.40;;;;;;5072149;28;20289;-57
2023/12/22 04:59:39;;;;;;;9.20;2.33;;;18.40;52.30;;;;;;5071999;28;20221;-59
2023/12/22 05:02:06;;;;;;;7.40;1.98;;;18.40;53.00;;;;;;5072142;28;20219;-56
2023/12/22 05:04:33;;;;;;;6.60;1.85;;;18.40;52.40;;;;;;5072230;28;20214;-58
2023/12/22 05:07:01;;;;;;;6.25;1.80;;;18.40;52.40;;;;;;5071683;28;20223;-58
2023/12/22 05:09:28;;;;;;;8.93;2.10;;;18.40;52.40;;;;;;5072001;28;20250;-59
2023/12/22 05:11:55;;;;;;;9.00;1.77;;;18.40;52.40;;;;;;5071872;28;20748;-59
2023/12/22 05:14:23;;;;;;;8.02;2.10;;;18.40;52.50;;;;;;5071877;28;20214;-58
2023/12/22 05:16:54;;;;;;;8.65;2.00;;;18.40;53.20;;;;;;5071899;28;20286;-58
2023/12/22 05:19:21;;;;;;;6.47;2.00;;;18.30;52.40;;;;;;5072343;28;20233;-59
2023/12/22 05:21:49;;;;;;;8.32;2.13;;;18.40;53.20;;;;;;5071446;28;20591;-57
2023/12/22 05:24:16;;;;;;;6.38;2.55;;;18.30;52.40;;;;;;5072453;28;20210;-59
2023/12/22 05:26:43;;;;;;;6.45;2.03;;;18.30;52.40;;;;;;5076021;28;20565;-61
2023/12/22 05:29:12;;;;;;;8.50;2.45;;;18.30;52.40;;;;;;5075581;28;20732;-58
2023/12/22 05:31:41;;;;;;;7.93;2.30;;;18.30;53.10;;;;;;5075802;28;20223;-58
2023/12/22 05:34:10;;;;;;;7.13;1.85;;;18.40;52.50;;;;;;5075816;28;20250;-59
2023/12/22 05:36:37;;;;;;;8.25;2.63;;;18.40;52.50;;;;;;5075247;28;20261;-59
2023/12/22 05:39:04;;;;;;;7.65;1.73;;;18.40;52.40;;;;;;5075474;28;20742;-58
2023/12/22 05:41:31;;;;;;;9.85;2.05;;;18.40;52.40;;;;;;5075453;28;20187;-56
2023/12/22 05:43:58;;;;;;;7.63;1.98;;;18.40;52.40;;;;;;5075285;28;20219;-58
2023/12/22 05:46:25;;;;;;;9.60;2.08;;;18.50;52.50;;;;;;5075444;28;20277;-59
2023/12/22 05:48:53;;;;;;;5.10;1.77;;;18.50;52.40;;;;;;5075460;28;20301;-58
2023/12/22 05:51:20;;;;;;;5.68;1.75;;;18.70;52.40;;;;;;5075161;28;20278;-57
2023/12/22 05:53:47;;;;;;;5.22;2.13;;;18.80;52.30;;;;;;5075385;28;20326;-58
2023/12/22 05:56:21;;;;;;;7.57;1.95;;;19.00;52.10;;;;;;5075293;28;20269;-58
2023/12/22 05:58:49;;;;;;;7.47;1.92;;;19.10;51.80;;;;;;5075125;28;20302;-57
2023/12/22 06:01:18;;;;;;;6.63;1.80;;;19.30;51.70;;;;;;5075180;28;20187;-59
2023/12/22 06:03:45;;;;;;;5.78;1.75;;;19.40;51.40;;;;;;5074818;28;20594;-59
2023/12/22 06:06:13;;;;;;;7.97;1.70;;;19.50;51.30;;;;;;5074679;28;20197;-58
2023/12/22 06:08:40;;;;;;;6.28;1.85;;;19.60;51.10;;;;;;5074786;28;20714;-59
2023/12/22 06:11:07;;;;;;;5.60;1.90;;;19.60;51.00;;;;;;5074696;28;20187;-59
2023/12/22 06:13:34;;;;;;;5.97;1.70;;;19.60;50.80;;;;;;5074395;28;20246;-60
2023/12/22 06:16:02;;;;;;;7.18;1.83;;;19.70;50.70;;;;;;5074967;28;20277;-61
2023/12/22 06:18:28;;;;;;;6.47;1.73;;;19.70;50.70;;;;;;5074930;28;20302;-61
2023/12/22 06:20:55;;;;;;;6.07;2.00;;;19.60;50.60;;;;;;5074140;28;20576;-59
2023/12/22 06:23:24;;;;;;;9.52;2.22;;;19.60;51.30;;;;;;5074716;28;20241;-59
2023/12/22 06:25:51;;;;;;;7.22;2.20;;;19.60;50.60;;;;;;5074471;28;20276;-61
2023/12/22 06:28:18;;;;;;;6.50;1.70;;;19.60;51.30;;;;;;5074322;28;20225;-61
2023/12/22 06:30:46;;;;;;;6.47;1.90;;;19.50;50.50;;;;;;5074650;28;20252;-58
2023/12/22 06:33:14;;;;;;;5.80;2.00;;;19.50;50.50;;;;;;5074783;28;20678;-59
2023/12/22 06:35:41;;;;;;;6.25;1.95;;;19.50;50.50;;;;;;5073115;28;20561;-55
2023/12/22 06:38:11;;;;;;;6.13;1.90;;;19.50;50.60;;;;;;5074100;28;20317;-59
2023/12/22 06:40:39;;;;;;;8.00;1.95;;;19.40;50.60;;;;;;5074226;28;20622;-59
2023/12/22 06:43:06;;;;;;;8.15;1.85;;;19.40;50.80;;;;;;5074124;28;20241;-61
2023/12/22 06:45:33;;;;;;;5.13;1.88;;;19.30;51.30;;;;;;5074332;28;20270;-59
2023/12/22 06:48:00;;;;;;;9.63;2.45;;;19.30;50.70;;;;;;5074384;28;20215;-59
2023/12/22 06:50:27;;;;;;;7.43;2.10;;;19.30;50.80;;;;;;5073923;28;20299;-61
2023/12/22 06:52:54;;;;;;;8.55;2.47;;;19.20;50.80;;;;;;5074167;28;20218;-61
2023/12/22 06:55:21;;;;;;;6.55;1.98;;;19.20;51.00;;;;;;5074148;28;20214;-59
2023/12/22 06:57:49;;;;;;;7.65;2.03;;;19.10;50.90;;;;;;5073728;28;20274;-60
2023/12/22 07:00:17;;;;;;;9.60;2.28;;;19.10;51.00;;;;;;5074325;28;20198;-59
2023/12/22 07:02:44;;;;;;;6.65;1.80;;;19.10;51.00;;;;;;5074211;28;20225;-58
2023/12/22 07:05:38;;;;;;;7.18;1.80;;;19.10;51.10;;;;;;5073635;28;20226;-61
2023/12/22 07:08:06;;;;;;;6.68;1.80;;;19.00;51.00;;;;;;5073971;28;20215;-59
2023/12/22 07:10:34;;;;;;;6.15;1.90;;;19.00;51.10;;;;;;5073893;28;20187;-61
2023/12/22 07:13:02;;;;;;;9.05;2.00;;;19.00;51.10;;;;;;5073314;28;20321;-59
2023/12/22 07:15:29;;;;;;;8.02;2.08;;;18.90;51.80;;;;;;5073947;28;20198;-60
2023/12/22 07:17:56;;;;;;;4.85;1.73;;;18.90;51.20;;;;;;5073741;28;20305;-58
2023/12/22 07:20:23;;;;;;;8.05;1.80;;;18.90;51.20;;;;;;5073443;28;20195;-59
2023/12/22 07:22:50;;;;;;;16.70;3.10;;;18.90;51.20;;;;;;5073764;28;20218;-57
2023/12/22 07:25:19;;;;;;;6.28;1.90;;;18.90;51.90;;;;;;5073231;28;20801;-58
2023/12/22 07:27:47;;;;;;;5.28;1.88;;;18.80;51.80;;;;;;5073106;28;20605;-58
2023/12/22 07:30:17;;;;;;;6.03;1.83;;;18.80;51.20;;;;;;5073489;28;20187;-59
2023/12/22 07:32:48;;;;;;;8.10;2.22;;;18.80;51.30;;;;;;5073122;28;20283;-56
2023/12/22 07:35:16;;;;;;;9.02;2.47;;;18.70;51.20;;;;;;5072731;28;20645;-59
2023/12/22 07:37:43;;;;;;;11.57;2.53;;;18.70;51.20;;;;;;5072990;28;20203;-61
2023/12/22 07:40:11;;;;;;;7.00;2.05;;;18.70;51.30;;;;;;5080279;28;20201;-61
2023/12/22 07:42:39;;;;;;;9.27;2.30;;;18.70;51.20;;;;;;5073469;28;20261;-61
2023/12/22 07:45:07;;;;;;;7.00;2.30;;;18.70;51.30;;;;;;5085691;28;20268;-57
2023/12/22 07:47:36;;;;;;;7.75;2.10;;;18.70;51.20;;;;;;5112369;28;20246;-59
2023/12/22 07:50:03;;;;;;;9.43;2.47;;;18.70;52.00;;;;;;5112631;28;20217;-59
2023/12/22 07:52:30;;;;;;;7.32;1.85;;;18.60;51.10;;;;;;5112977;28;20277;-61
2023/12/22 07:54:57;;;;;;;10.40;2.53;;;18.60;51.20;;;;;;5112222;28;20220;-58
2023/12/22 07:57:24;;;;;;;9.60;1.85;;;18.60;51.20;;;;;;5112125;28;20272;-58
2023/12/22 07:59:51;;;;;;;10.63;2.72;;;18.60;51.20;;;;;;5112595;28;20657;-59
2023/12/22 08:02:18;;;;;;;10.43;2.10;;;18.60;51.10;;;;;;5112707;28;20209;-59
2023/12/22 08:04:46;;;;;;;7.72;2.47;;;18.60;51.20;;;;;;5112264;28;20295;-59
2023/12/22 08:07:13;;;;;;;9.60;2.40;;;18.60;51.10;;;;;;5112439;28;20272;-58
2023/12/22 08:09:40;;;;;;;8.02;2.20;;;18.60;51.10;;;;;;5112281;28;20268;-62
2023/12/22 08:12:09;;;;;;;7.70;2.00;;;18.60;51.00;;;;;;5097089;28;20775;-57
2023/12/22 08:14:36;;;;;;;9.13;2.30;;;18.70;50.90;;;;;;5076054;28;20219;-59
2023/12/22 08:17:02;;;;;;;9.23;2.38;;;18.70;50.70;;;;;;5110840;28;20276;-59
2023/12/22 08:19:29;;;;;;;7.30;2.20;;;18.80;51.20;;;;;;5094593;28;20249;-62
2023/12/22 08:21:58;;;;;;;10.13;2.58;;;18.80;50.40;;;;;;5092173;28;20284;-61
2023/12/22 08:24:25;;;;;;;12.13;2.30;;;18.80;50.30;;;;;;5081016;28;20600;-61
2023/12/22 08:26:52;;;;;;;6.03;1.80;;;18.80;50.30;;;;;;5072115;28;20209;-61
2023/12/22 08:29:19;;;;;;;10.70;2.50;;;18.90;50.80;;;;;;5077792;28;20305;-61
2023/12/22 08:31:46;;;;;;;9.32;2.30;;;18.90;50.70;;;;;;5091759;28;20190;-61
2023/12/22 08:34:13;;;;;;;7.80;2.35;;;18.90;50.00;;;;;;5101373;28;20307;-59
2023/12/22 08:36:40;;;;;;;12.13;2.60;;;18.90;50.00;;;;;;5111662;28;20265;-56
2023/12/22 08:39:08;;;;;;;14.75;2.95;;;18.90;50.10;;;;;;5111042;28;20251;-59
2023/12/22 08:41:36;;;;;;;8.95;2.15;;;18.90;50.00;;;;;;5104021;28;20647;-58
2023/12/22 08:44:04;;;;;;;8.48;2.08;;;18.90;49.90;;;;;;5091545;28;20255;-59
2023/12/22 08:46:31;;;;;;;8.77;2.33;;;19.00;49.90;;;;;;5091215;28;20213;-61
2023/12/22 08:48:59;;;;;;;10.10;2.47;;;18.90;50.50;;;;;;5090558;28;20603;-61
2023/12/22 08:51:26;;;;;;;8.07;2.25;;;18.90;49.80;;;;;;5091396;28;20190;-58
2023/12/22 08:53:54;;;;;;;11.18;2.72;;;18.90;49.80;;;;;;5090334;28;20221;-58
2023/12/22 08:56:23;;;;;;;7.32;2.42;;;18.90;49.80;;;;;;5090752;28;20592;-60
2023/12/22 08:58:51;;;;;;;7.10;2.20;;;18.90;49.80;;;;;;5091174;28;20210;-62
2023/12/22 09:01:19;;;;;;;6.65;2.33;;;18.90;49.90;;;;;;5095221;28;20647;-61
2023/12/22 09:03:46;;;;;;;8.35;2.30;;;18.90;49.80;;;;;;5094852;28;20316;-59
2023/12/22 09:06:15;;;;;;;6.50;2.25;;;19.00;50.00;;;;;;5094882;28;20191;-59
2023/12/22 09:08:43;;;;;;;11.00;2.97;;;19.00;49.80;;;;;;5094397;28;20220;-59
2023/12/22 09:11:11;;;;;;;10.10;2.30;;;19.20;49.60;;;;;;5094787;28;20602;-61
2023/12/22 09:13:40;;;;;;;6.28;2.40;;;19.20;49.40;;;;;;5075370;28;20321;-57
2023/12/22 09:16:07;;;;;;;11.00;3.22;;;19.40;49.30;;;;;;5075154;28;20249;-59
2023/12/22 09:18:34;;;;;;;13.07;2.88;;;19.50;49.00;;;;;;5085389;28;20217;-60
2023/12/22 09:21:01;;;;;;;17.85;3.28;;;19.60;49.00;;;;;;5095018;28;20196;-60
2023/12/22 09:23:28;;;;;;;13.20;2.70;;;19.80;48.60;;;;;;5093895;28;20240;-62
2023/12/22 09:25:55;;;;;;;14.77;3.53;;;19.90;48.40;;;;;;5094886;28;20275;-62
2023/12/22 09:28:22;;;;;;;17.75;3.42;;;20.00;48.20;;;;;;5094947;28;20321;-59
2023/12/22 09:30:51;;;;;;;15.35;3.72;;;20.20;48.20;;;;;;5094663;28;20281;-58
2023/12/22 09:33:18;;;;;;;19.83;3.30;;;20.30;47.90;;;;;;5094307;28;20305;-59
2023/12/22 09:35:45;;;;;;;13.65;3.03;;;20.40;47.80;;;;;;5094928;28;20186;-59
2023/12/22 09:38:13;;;;;;;15.10;3.53;;;20.50;48.20;;;;;;5093861;28;20182;-59
2023/12/22 09:40:40;;;;;;;20.75;2.72;;;20.50;47.40;;;;;;5094349;28;20562;-59
2023/12/22 09:43:09;;;;;;;15.30;3.08;;;20.60;47.00;;;;;;5094457;28;20218;-59
2023/12/22 09:45:37;;;;;;;10.18;2.83;;;20.70;46.80;;;;;;5094751;28;20269;-60
2023/12/22 09:48:07;;;;;;;10.75;3.00;;;20.80;46.90;;;;;;5087413;28;20209;-59
2023/12/22 09:50:35;;;;;;;9.82;2.67;;;20.90;46.90;;;;;;5075039;28;20544;-59
2023/12/22 09:53:04;;;;;;;15.23;3.53;;;21.00;46.70;;;;;;5074221;28;20210;-59
2023/12/22 09:55:32;;;;;;;16.40;2.85;;;21.10;46.20;;;;;;5074353;28;20645;-59
2023/12/22 09:58:01;;;;;;;15.15;2.75;;;21.10;46.20;;;;;;5074384;28;20238;-59
2023/12/22 10:00:29;;;;;;;10.98;2.80;;;21.20;46.70;;;;;;5064003;28;20202;-56
2023/12/22 10:02:56;;;;;;;15.43;3.13;;;21.30;46.10;;;;;;5068022;28;20663;-59
2023/12/22 10:05:25;;;;;;;11.65;2.78;;;21.30;45.90;;;;;;5059485;28;20255;-60
2023/12/22 10:07:52;;;;;;;11.43;3.00;;;21.40;45.90;;;;;;5079201;28;20651;-60
2023/12/22 10:10:20;;;;;;;24.63;3.70;;;21.40;45.80;;;;;;5072491;28;20325;-59
2023/12/22 10:12:48;;;;;;;24.27;3.70;;;21.40;46.30;;;;;;5085509;28;20317;-58
2023/12/22 10:15:16;;;;;;;18.95;3.95;;;21.40;45.70;;;;;;5081240;28;20309;-57
2023/12/22 10:17:43;;;;;;;14.55;3.30;;;21.40;45.60;;;;;;5077164;28;20269;-59
2023/12/22 10:20:11;;;;;;;16.88;3.67;;;21.40;45.50;;;;;;5080122;28;20225;-60
2023/12/22 10:22:40;;;;;;;21.17;4.35;;;21.40;45.50;;;;;;5073718;28;20187;-59
2023/12/22 10:25:09;;;;;;;20.35;3.97;;;21.40;45.40;;;;;;5062054;28;20302;-59
2023/12/22 10:27:38;;;;;;;36.40;4.10;;;21.40;45.40;;;;;;5053370;28;20223;-59
2023/12/22 10:30:07;;;;;;;22.80;3.67;;;21.50;45.30;;;;;;5071372;28;20261;-60
2023/12/22 10:32:34;;;;;;;29.40;4.15;;;21.50;45.30;;;;;;5093383;28;20412;-60
2023/12/22 10:35:01;;;;;;;30.77;3.97;;;21.60;45.20;;;;;;5080716;28;20304;-61
2023/12/22 10:37:29;;;;;;;31.15;4.38;;;21.60;45.20;;;;;;5058323;28;20195;-57
2023/12/22 10:39:57;;;;;;;22.33;3.80;;;21.60;45.10;;;;;;5058950;28;20268;-59
2023/12/22 10:42:25;;;;;;;22.63;3.90;;;21.60;45.10;;;;;;5084146;28;20277;-60
2023/12/22 10:44:53;;;;;;;19.83;3.63;;;21.70;45.20;;;;;;5086107;28;20242;-59
2023/12/22 10:47:21;;;;;;;21.50;3.95;;;21.70;45.50;;;;;;5072100;28;20600;-59
2023/12/22 10:49:47;;;;;;;12.13;2.90;;;21.80;44.80;;;;;;5071675;28;20292;-59
2023/12/22 10:52:18;;;;;;;14.93;3.22;;;21.80;44.80;;;;;;5071723;28;20194;-60
2023/12/22 10:54:45;;;;;;;14.55;3.70;;;21.80;44.70;;;;;;5055926;28;20215;-60
2023/12/22 10:57:13;;;;;;;19.92;3.53;;;21.90;44.70;;;;;;5071728;28;20378;-59
2023/12/22 10:59:46;;;;;;;17.05;3.10;;;21.90;44.60;;;;;;5072343;28;20211;-60
2023/12/22 11:02:17;;;;;;;14.45;3.55;;;21.80;44.70;;;;;;5071979;28;20183;-59
2023/12/22 11:04:54;;;;;;;16.70;4.10;;;21.90;44.70;;;;;;5070822;28;20222;-59
2023/12/22 11:07:25;;;;;;;15.80;3.88;;;21.80;44.60;;;;;;5072060;28;20657;-59
2023/12/22 11:09:54;;;;;;;23.15;4.53;;;21.90;44.50;;;;;;5070851;28;20202;-58
2023/12/22 11:12:25;;;;;;;18.75;4.30;;;21.90;44.50;;;;;;5071704;28;20233;-61
2023/12/22 11:14:55;;;;;;;17.58;3.42;;;21.90;44.50;;;;;;5071341;28;20206;-58
2023/12/22 11:17:23;;;;;;;16.77;5.78;;;21.90;44.40;;;;;;5071807;28;20281;-59
2023/12/22 11:19:51;;;;;;;23.10;6.40;;;22.00;44.50;;;;;;5071960;28;20642;-61
2023/12/22 11:22:19;;;;;;;25.85;6.05;;;22.00;44.10;;;;;;5071381;28;20187;-60
2023/12/22 11:24:48;;;;;;;20.05;4.57;;;22.00;44.20;;;;;;5071206;28;20222;-60
2023/12/22 11:27:18;;;;;;;17.05;4.72;;;22.10;43.90;;;;;;5071409;28;20191;-59
2023/12/22 11:29:49;;;;;;;22.17;4.80;;;22.20;43.60;;;;;;5075977;28;20696;-60
2023/12/22 11:32:17;;;;;;;19.38;4.70;;;22.20;43.30;;;;;;5071356;28;20195;-60
2023/12/22 11:34:45;;;;;;;20.55;4.32;;;22.40;43.30;;;;;;5071121;28;20226;-61
2023/12/22 11:37:13;;;;;;;15.70;4.18;;;22.40;43.20;;;;;;5071463;28;20194;-59
2023/12/22 11:39:40;;;;;;;20.17;4.22;;;22.50;43.00;;;;;;5071211;28;20708;-58
2023/12/22 11:42:10;;;;;;;13.68;3.45;;;22.50;42.70;;;;;;5071061;28;20274;-60
2023/12/22 11:44:37;;;;;;;16.08;4.15;;;22.50;42.50;;;;;;5071505;28;20234;-62
2023/12/22 11:47:06;;;;;;;14.50;3.72;;;22.60;43.20;;;;;;5071105;28;20636;-61
2023/12/22 11:49:34;;;;;;;9.00;3.35;;;22.60;42.30;;;;;;5071592;28;20298;-61
2023/12/22 11:52:10;;;;;;;11.73;2.92;;;22.60;42.10;;;;;;5070911;28;20579;-61
2023/12/22 11:54:48;;;;;;;16.13;3.13;;;22.70;41.90;;;;;;5071079;28;20309;-62
2023/12/22 11:57:37;;;;;;;15.25;3.40;;;22.70;41.90;;;;;;5070588;28;20288;-62
2023/12/22 12:00:10;;;;;;;12.18;2.85;;;22.70;41.60;;;;;;5065956;28;20222;-61
2023/12/22 12:02:41;;;;;;;14.88;3.75;;;22.70;41.80;;;;;;5071166;28;20193;-62
2023/12/22 12:05:09;;;;;;;13.95;3.22;;;22.80;41.70;;;;;;5070766;28;20321;-62
2023/12/22 12:07:41;;;;;;;14.25;3.35;;;22.80;41.80;;;;;;5071025;28;20222;-62
2023/12/22 12:10:09;;;;;;;12.68;3.30;;;22.80;42.20;;;;;;5070651;28;20787;-61
2023/12/22 12:12:36;;;;;;;14.02;3.67;;;22.80;41.50;;;;;;5081005;28;20803;-62
2023/12/22 12:15:09;;;;;;;8.02;2.80;;;22.80;42.10;;;;;;5091247;28;20268;-62
2023/12/22 12:17:41;;;;;;;12.23;2.75;;;22.80;41.30;;;;;;5077538;28;20187;-62
2023/12/22 12:20:10;;;;;;;12.05;2.95;;;22.80;41.30;;;;;;5090591;28;20221;-62
2023/12/22 12:22:38;;;;;;;10.45;3.28;;;22.80;41.30;;;;;;5077141;28;20680;-62
2023/12/22 12:25:09;;;;;;;13.77;2.90;;;22.80;41.10;;;;;;5070989;28;20284;-62
2023/12/22 12:27:38;;;;;;;14.32;3.10;;;22.90;41.00;;;;;;5070922;28;20191;-61
2023/12/22 12:30:13;;;;;;;9.20;2.72;;;22.90;40.90;;;;;;5081254;28;20218;-60
2023/12/22 12:32:45;;;;;;;8.43;2.75;;;22.90;40.80;;;;;;5077536;28;20189;-60
2023/12/22 12:35:12;;;;;;;10.68;2.95;;;22.90;40.90;;;;;;5070373;28;20218;-58
2023/12/22 12:37:42;;;;;;;8.50;2.60;;;22.90;40.80;;;;;;5070301;28;20183;-59
2023/12/22 12:40:12;;;;;;;8.10;2.45;;;22.90;40.60;;;;;;5070680;28;20218;-60
2023/12/22 12:42:39;;;;;;;10.02;2.38;;;22.90;40.50;;;;;;5069898;28;20194;-60
2023/12/22 12:45:08;;;;;;;9.40;2.40;;;22.90;40.40;;;;;;5069863;28;20329;-61
2023/12/22 12:47:35;;;;;;;9.77;2.42;;;22.90;40.50;;;;;;5070216;28;20195;-59